Time;durP1;ratioP1;P1;durP2;ratioP2;P2;SDS_P1;SDS_P2;PMS_P1;PMS_P2;Temp;Humidity;BMP_temperature;BMP_pressure;BME280_temperature;BME280_humidity;BME280_pressure;Samples;Min_cycle;Max_cycle;Signal;HPM_P1;HPM_P2
2021/11/12 00:14:25;;;;;;;13.80;8.00;;;;;;;0.56;80.37;100318.59;24517;1355;3055356;-71
2021/11/12 00:16:55;;;;;;;19.00;8.30;;;;;;;1.12;78.71;100311.96;24518;1355;3026422;-71
2021/11/12 00:19:26;;;;;;;16.70;8.10;;;;;;;1.44;77.24;100308.92;24494;1355;3027743;-70
2021/11/12 00:21:55;;;;;;;18.70;9.70;;;;;;;1.32;77.61;100308.17;24530;1355;3027273;-69
2021/11/12 00:24:24;;;;;;;16.50;9.10;;;;;;;1.20;77.78;100305.69;24541;1359;3027856;-67
2021/11/12 00:26:55;;;;;;;27.40;12.20;;;;;;;1.09;78.30;100307.84;24484;1361;3068084;-67
2021/11/12 00:29:27;;;;;;;28.60;12.50;;;;;;;0.89;79.11;100305.94;24510;1361;3028220;-69
2021/11/12 00:32:17;;;;;;;19.10;8.90;;;;;;;0.76;79.81;100294.99;24476;1355;3028258;-73
2021/11/12 00:35:05;;;;;;;33.00;12.60;;;;;;;1.26;78.69;100286.83;24518;1358;3053582;-74
2021/11/12 00:45:25;;;;;;;92.70;28.40;;;;;;;1.39;76.81;100270.14;24517;1352;3026088;-67
2021/11/12 00:48:09;;;;;;;84.80;26.30;;;;;;;1.02;78.34;100269.94;24529;1360;3026938;-70
2021/11/12 00:55:45;;;;;;;40.70;15.80;;;;;;;2.02;75.69;100265.09;24534;1360;3067319;-71
2021/11/12 00:58:15;;;;;;;35.40;13.50;;;;;;;1.83;75.37;100270.48;24522;1358;3027107;-70
2021/11/12 01:00:45;;;;;;;38.50;15.20;;;;;;;1.47;76.85;100273.33;24551;1361;3026779;-72
2021/11/12 01:03:14;;;;;;;44.50;16.30;;;;;;;1.28;77.60;100269.37;24788;1355;3026629;-69
2021/11/12 01:05:43;;;;;;;46.80;17.50;;;;;;;1.19;77.95;100274.81;24496;1358;3048759;-71
2021/11/12 01:08:12;;;;;;;48.40;20.00;;;;;;;0.98;78.66;100273.77;24506;1358;3026273;-68
2021/11/12 01:10:45;;;;;;;54.00;18.90;;;;;;;0.77;79.86;100276.54;24485;1355;3067435;-68
2021/11/12 01:13:15;;;;;;;36.60;14.90;;;;;;;1.17;79.12;100261.53;24498;1361;3026896;-70
2021/11/12 01:16:03;;;;;;;32.40;15.00;;;;;;;1.39;77.74;100255.61;24514;1361;3055620;-72
2021/11/12 01:18:34;;;;;;;38.80;18.60;;;;;;;1.38;77.86;100244.23;24494;1355;3053158;-68
2021/11/12 01:21:05;;;;;;;46.70;21.50;;;;;;;1.12;78.70;100247.60;24506;1359;3028623;-72
2021/11/12 01:23:42;;;;;;;54.40;23.00;;;;;;;0.88;79.63;100253.84;24489;1361;3051447;-71
2021/11/12 01:26:11;;;;;;;59.50;24.70;;;;;;;0.87;80.30;100241.27;24492;1361;3026896;-68
2021/11/12 01:28:42;;;;;;;52.80;22.90;;;;;;;0.75;80.66;100241.20;24537;1359;3027368;-71
2021/11/12 01:31:14;;;;;;;56.80;22.80;;;;;;;1.15;80.08;100239.45;24516;1355;3027550;-74
2021/11/12 01:33:47;;;;;;;34.70;17.50;;;;;;;1.59;78.21;100230.52;24543;1355;3028329;-70
2021/11/12 01:38:48;;;;;;;54.00;22.50;;;;;;;1.34;78.58;100226.16;24474;1358;3026963;-67
2021/11/12 01:41:20;;;;;;;49.60;21.60;;;;;;;1.21;79.09;100219.73;24525;1355;3026834;-68
2021/11/12 01:43:54;;;;;;;44.80;22.60;;;;;;;1.09;79.70;100223.65;24562;1361;3027999;-70
2021/11/12 01:46:36;;;;;;;37.00;17.00;;;;;;;0.94;80.72;100229.14;24527;1361;3052637;-71
2021/11/12 01:51:54;;;;;;;33.40;15.90;;;;;;;1.79;77.64;100217.70;24480;1355;3071082;-71
2021/11/12 01:54:42;;;;;;;37.00;14.50;;;;;;;1.52;78.56;100224.58;24518;1361;3051103;-72
2021/11/12 01:57:24;;;;;;;30.40;14.00;;;;;;;1.42;79.05;100219.17;24525;1359;3052877;-71
2021/11/12 01:59:53;;;;;;;34.60;15.20;;;;;;;1.27;79.77;100219.85;24528;1359;3055147;-72
2021/11/12 02:02:24;;;;;;;38.90;17.70;;;;;;;1.09;80.36;100218.99;24486;1361;3027165;-72
2021/11/12 02:04:59;;;;;;;31.10;14.00;;;;;;;1.03;80.72;100219.41;24540;1361;3050342;-67
2021/11/12 02:07:29;;;;;;;28.90;13.00;;;;;;;1.52;79.34;100216.63;24503;1361;3026570;-72
2021/11/12 02:10:11;;;;;;;33.10;14.00;;;;;;;1.87;77.54;100206.89;24518;1355;3055899;-70
2021/11/12 02:13:25;;;;;;;26.90;13.70;;;;;;;1.88;77.44;100208.42;24513;1356;3072106;-73
2021/11/12 02:15:35;;;;;;;29.50;12.70;;;;;;;1.80;77.37;100203.87;24544;1360;3051653;-71
2021/11/12 02:18:16;;;;;;;31.70;15.30;;;;;;;1.53;78.61;100210.75;24551;1361;3053714;-69
2021/11/12 02:20:55;;;;;;;36.20;16.20;;;;;;;1.31;79.58;100221.17;24540;1355;3026608;-69
2021/11/12 02:23:30;;;;;;;33.20;14.40;;;;;;;1.26;79.85;100219.17;24519;1355;3058372;-67
2021/11/12 02:26:00;;;;;;;35.10;14.60;;;;;;;1.67;78.79;100218.54;24520;1355;3051547;-71
2021/11/12 02:28:30;;;;;;;29.90;14.30;;;;;;;2.14;76.80;100209.09;24508;1358;3026170;-70
2021/11/12 02:31:00;;;;;;;36.00;15.30;;;;;;;2.10;76.50;100202.77;24548;1355;3027177;-70
2021/11/12 02:33:34;;;;;;;21.20;11.50;;;;;;;1.91;77.18;100198.36;24487;1361;3071540;-69
2021/11/12 02:36:12;;;;;;;26.40;13.20;;;;;;;1.63;78.46;100196.64;24521;1359;3027129;-68
2021/11/12 02:38:44;;;;;;;56.10;18.30;;;;;;;1.50;78.93;100196.28;24533;1360;3052151;-70
2021/11/12 02:41:13;;;;;;;43.00;12.90;;;;;;;1.28;80.01;100205.86;24500;1358;3026869;-68
2021/11/12 02:43:43;;;;;;;24.70;9.90;;;;;;;1.59;79.72;100192.20;24498;1356;3026599;-69
2021/11/12 02:46:16;;;;;;;36.80;14.00;;;;;;;2.19;76.98;100186.05;24535;1359;3026819;-69
2021/11/12 02:48:46;;;;;;;38.20;14.00;;;;;;;2.04;77.00;100188.86;24536;1361;3027900;-70
2021/11/12 02:51:21;;;;;;;36.20;14.80;;;;;;;1.85;77.73;100187.89;24488;1352;3026742;-69
2021/11/12 02:53:50;;;;;;;118.00;26.40;;;;;;;1.64;78.92;100190.42;24523;1353;3069013;-71
2021/11/12 02:56:31;;;;;;;167.50;36.40;;;;;;;1.49;79.40;100187.67;24535;1361;3051888;-70
2021/11/12 02:59:10;;;;;;;87.70;25.20;;;;;;;1.48;79.59;100185.78;24508;1361;3026752;-71
2021/11/12 03:01:45;;;;;;;56.90;16.50;;;;;;;1.77;79.04;100186.80;24519;1358;3052913;-69
2021/11/12 03:04:15;;;;;;;30.00;12.60;;;;;;;2.09;77.58;100177.20;24513;1356;3056422;-70
2021/11/12 03:06:44;;;;;;;25.10;11.60;;;;;;;2.06;77.07;100170.67;24525;1361;3026686;-72
2021/11/12 03:09:13;;;;;;;16.90;9.30;;;;;;;1.84;77.98;100169.09;24538;1352;3026588;-67
2021/11/12 03:12:04;;;;;;;21.70;8.90;;;;;;;1.61;79.17;100171.10;24413;1361;3057564;-66
2021/11/12 03:14:37;;;;;;;15.50;9.40;;;;;;;1.59;79.08;100163.89;24482;1355;3026027;-70
2021/11/12 03:17:06;;;;;;;15.90;8.50;;;;;;;1.59;79.48;100161.30;24494;1361;3026324;-70
2021/11/12 03:19:35;;;;;;;21.10;9.80;;;;;;;2.08;78.34;100155.27;24521;1353;3031047;-69
2021/11/12 03:22:08;;;;;;;36.90;13.90;;;;;;;2.44;76.70;100142.09;24428;1358;3026959;-66
2021/11/12 03:24:43;;;;;;;55.60;17.50;;;;;;;2.28;76.94;100141.50;24466;1359;3029010;-69
2021/11/12 05:13:22;;;;;;;13.60;6.50;;;;;;;3.12;76.27;100059.53;24403;1359;3053033;-68
2021/11/12 05:43:38;;;;;;;14.40;9.50;;;;;;;2.67;78.08;100053.14;24497;1355;3068333;-66
2021/11/12 05:46:22;;;;;;;12.50;8.10;;;;;;;2.65;77.88;100049.54;24547;1355;3052019;-68
2021/11/12 05:56:43;;;;;;;17.40;8.20;;;;;;;3.20;76.37;100030.45;24456;1358;3050519;-70
2021/11/12 05:59:13;;;;;;;16.70;7.80;;;;;;;3.06;76.85;100027.11;24549;1355;3027235;-70
2021/11/12 06:01:43;;;;;;;15.00;8.40;;;;;;;2.90;77.72;100028.46;24517;1360;3026612;-69
2021/11/12 06:04:12;;;;;;;17.00;7.70;;;;;;;2.77;78.09;100019.04;24490;1346;3027443;-70
2021/11/12 06:06:42;;;;;;;19.50;8.20;;;;;;;2.77;78.47;100030.29;24508;1358;3027035;-71
2021/11/12 06:09:11;;;;;;;13.10;6.80;;;;;;;3.05;78.01;100030.58;24528;1355;3029374;-74
2021/11/12 06:11:40;;;;;;;11.50;5.90;;;;;;;3.59;75.99;100019.55;24537;1355;3026516;-74
2021/11/12 06:14:09;;;;;;;12.00;7.10;;;;;;;3.39;75.98;100016.54;24532;1355;3049161;-70
2021/11/12 06:16:39;;;;;;;12.70;6.80;;;;;;;3.25;76.52;100018.40;24462;1358;3026096;-67
2021/11/12 06:19:08;;;;;;;12.60;6.70;;;;;;;3.23;76.68;100008.06;24496;1359;3027561;-72
2021/11/12 06:21:37;;;;;;;13.50;7.50;;;;;;;3.11;77.18;100009.88;24552;1358;3026860;-74
2021/11/12 06:24:06;;;;;;;14.70;6.30;;;;;;;3.05;77.89;100004.45;24538;1355;3054234;-71
2021/11/12 06:26:35;;;;;;;14.50;6.20;;;;;;;3.53;76.90;100001.83;24509;1355;3029694;-69
2021/11/12 06:29:05;;;;;;;14.90;6.70;;;;;;;3.93;75.24;99994.14;24482;1361;3049013;-71
2021/11/12 06:31:35;;;;;;;24.10;7.00;;;;;;;3.76;75.46;99986.94;24518;1361;3027418;-70
2021/11/12 06:34:05;;;;;;;18.40;7.90;;;;;;;3.73;75.87;99992.02;24512;1355;3026211;-68
2021/11/12 06:36:34;;;;;;;18.00;7.30;;;;;;;3.56;76.65;99993.30;24524;1355;3026562;-72
2021/11/12 06:39:05;;;;;;;16.30;6.90;;;;;;;3.75;75.96;99989.89;24515;1355;3052112;-70
2021/11/12 06:50:01;;;;;;;23.50;9.40;;;;;;;4.37;74.07;99971.67;24436;1356;3056215;-73
2021/11/12 06:52:31;;;;;;;;;;;;;;;4.33;74.85;99972.29;24519;1355;3054357;-66
2021/11/12 06:55:03;;;;;;;17.70;8.10;;;;;;;4.25;75.40;99963.14;24475;1355;3026479;-68
2021/11/12 06:57:35;;;;;;;13.50;7.20;;;;;;;4.17;75.84;99966.48;24473;1358;3048788;-71
2021/11/12 07:00:06;;;;;;;15.00;6.80;;;;;;;4.18;76.28;99966.45;24532;1355;3026354;-69
2021/11/12 07:02:37;;;;;;;14.30;6.00;;;;;;;4.77;75.07;99952.50;24497;1361;3070534;-74
2021/11/12 07:05:07;;;;;;;10.90;5.80;;;;;;;5.08;73.86;99957.86;24526;1355;3028799;-68
2021/11/12 07:07:47;;;;;;;9.70;4.90;;;;;;;5.24;73.75;99953.38;24575;1355;3054163;-70
2021/11/12 07:10:17;;;;;;;12.20;6.10;;;;;;;5.32;73.59;99945.98;24599;1355;3027244;-70
2021/11/12 07:12:47;;;;;;;8.40;5.40;;;;;;;5.24;74.35;99953.57;24654;1358;3027807;-73
2021/11/12 07:15:18;;;;;;;9.60;5.40;;;;;;;4.93;75.04;99953.28;24859;1346;3027347;-67
2021/11/12 07:17:47;;;;;;;9.80;5.00;;;;;;;4.96;75.16;99941.90;24667;1355;3030069;-74
2021/11/12 07:20:18;;;;;;;11.50;4.30;;;;;;;5.61;73.66;99940.05;24522;1360;3029035;-69
2021/11/12 07:22:46;;;;;;;9.20;4.60;;;;;;;5.88;72.17;99936.58;24526;1355;3026538;-69
2021/11/12 07:25:16;;;;;;;13.10;5.60;;;;;;;5.79;72.41;99931.66;24507;1355;3054707;-68
2021/11/12 07:27:45;;;;;;;10.50;4.60;;;;;;;5.74;72.57;99925.72;24565;1355;3026708;-69
2021/11/12 07:30:15;;;;;;;11.00;5.90;;;;;;;5.80;72.70;99927.27;24573;1358;3054765;-71
2021/11/12 07:32:45;;;;;;;11.20;5.90;;;;;;;5.73;73.04;99924.19;24535;1355;3026046;-67
2021/11/12 07:35:18;;;;;;;12.20;5.60;;;;;;;5.59;74.06;99930.58;24562;1353;3028186;-68
2021/11/12 07:38:00;;;;;;;;;;;;;;;5.72;74.19;99924.59;24516;1355;3051940;-68
2021/11/12 07:46:32;;;;;;;9.60;4.70;;;;;;;6.57;71.35;99910.33;24553;1353;3067184;-65
2021/11/12 07:49:03;;;;;;;14.40;6.20;;;;;;;6.23;72.82;99925.46;24513;1355;3052037;-72
2021/11/12 07:51:32;;;;;;;12.40;6.20;;;;;;;6.15;73.51;99916.00;24552;1355;3026790;-65
2021/11/12 07:54:02;;;;;;;15.20;6.50;;;;;;;6.14;73.44;99917.44;24571;1355;3026835;-68
2021/11/12 07:56:31;;;;;;;24.40;6.90;;;;;;;6.25;74.05;99914.46;24561;1354;3051422;-72
2021/11/12 07:59:00;;;;;;;13.10;6.60;;;;;;;6.72;72.47;99916.58;24572;1355;3030243;-68
2021/11/12 08:01:29;;;;;;;24.80;7.70;;;;;;;6.95;71.20;99908.38;24501;1359;3070635;-72
2021/11/12 08:04:01;;;;;;;16.20;7.40;;;;;;;6.79;71.85;99900.30;24604;1359;3026739;-67
2021/11/12 08:06:34;;;;;;;28.20;8.40;;;;;;;6.92;71.48;99898.91;24498;1355;3053466;-71
2021/11/12 08:09:10;;;;;;;14.50;5.80;;;;;;;7.03;71.00;99888.39;24383;1358;3026478;-66
2021/11/12 08:14:27;;;;;;;14.70;4.80;;;;;;;6.70;72.36;99896.45;24467;1355;3052843;-71
2021/11/12 08:19:53;;;;;;;11.10;5.30;;;;;;;7.59;70.51;99891.39;24552;1356;3057132;-69
2021/11/12 08:33:12;;;;;;;12.60;5.20;;;;;;;7.46;70.43;99880.05;24479;1362;3048247;-67
2021/11/12 08:38:33;;;;;;;17.10;5.40;;;;;;;7.36;71.24;99879.42;24540;1355;3052109;-71
2021/11/12 08:41:12;;;;;;;13.00;5.20;;;;;;;8.16;69.26;99851.79;24520;1358;3056738;-72
2021/11/12 08:43:58;;;;;;;12.20;4.70;;;;;;;8.55;67.28;99847.25;24479;1355;3052583;-69
2021/11/12 08:47:14;;;;;;;12.50;5.60;;;;;;;8.63;66.60;99844.81;24467;1352;3053561;-72
2021/11/12 08:49:34;;;;;;;17.40;5.00;;;;;;;8.45;66.60;99851.04;24501;1359;3053668;-69
2021/11/12 08:52:04;;;;;;;13.70;4.70;;;;;;;8.08;67.52;99848.13;24526;1361;3071185;-71
2021/11/12 08:54:38;;;;;;;14.40;5.70;;;;;;;8.23;67.19;99840.33;24469;1355;3028204;-73
2021/11/12 08:57:11;;;;;;;20.30;7.00;;;;;;;8.32;66.65;99835.92;24478;1358;3051725;-70
2021/11/12 08:59:43;;;;;;;12.10;5.30;;;;;;;8.24;66.59;99837.45;24495;1358;3052322;-69
2021/11/12 09:02:15;;;;;;;8.20;3.40;;;;;;;8.18;66.82;99839.48;24477;1358;3026645;-70
2021/11/12 09:04:46;;;;;;;10.20;4.40;;;;;;;8.30;66.00;99836.70;24465;1358;3027320;-71
2021/11/12 09:07:16;;;;;;;8.20;4.40;;;;;;;8.23;66.29;99838.72;24433;1359;3026533;-69
2021/11/12 09:09:50;;;;;;;13.80;6.00;;;;;;;8.10;66.90;99842.45;24480;1355;3027412;-73
2021/11/12 09:12:22;;;;;;;16.00;5.70;;;;;;;7.88;67.55;99832.59;24465;1362;3070816;-71
2021/11/12 09:14:52;;;;;;;22.30;5.60;;;;;;;7.90;67.15;99825.73;24468;1358;3026549;-70
2021/11/12 09:17:23;;;;;;;18.60;5.30;;;;;;;7.96;66.79;99834.02;24482;1358;3026993;-72
2021/11/12 09:19:57;;;;;;;9.80;4.00;;;;;;;7.99;67.11;99846.58;24480;1364;3026880;-71
2021/11/12 09:22:31;;;;;;;10.80;4.90;;;;;;;8.62;65.54;99823.91;24465;1361;3058923;-70
2021/11/12 09:25:00;;;;;;;15.90;5.80;;;;;;;8.77;64.97;99806.79;24431;1361;3027236;-71
2021/11/12 09:27:29;;;;;;;15.30;5.60;;;;;;;8.86;64.73;99792.40;24542;1351;3026720;-70
2021/11/12 09:29:58;;;;;;;9.70;5.70;;;;;;;8.90;64.64;99794.45;24457;1358;3058795;-68
2021/11/12 09:32:27;;;;;;;11.60;4.40;;;;;;;8.88;63.76;99810.44;24497;1361;3026516;-74
2021/11/12 09:34:56;;;;;;;11.10;4.40;;;;;;;8.80;63.87;99808.55;24508;1356;3027739;-70
2021/11/12 09:37:26;;;;;;;12.80;6.50;;;;;;;8.73;63.75;99813.79;24458;1357;3055653;-66
2021/11/12 09:39:57;;;;;;;27.40;7.00;;;;;;;8.60;64.13;99795.89;24474;1358;3026624;-74
2021/11/12 09:42:29;;;;;;;13.70;5.20;;;;;;;8.49;64.56;99827.09;24524;1352;3026675;-73
2021/11/12 09:45:04;;;;;;;7.90;4.40;;;;;;;8.45;64.71;99805.65;24455;1359;3053393;-69
2021/11/12 09:47:33;;;;;;;14.80;5.90;;;;;;;8.19;65.67;99801.05;24473;1358;3026860;-75
2021/11/12 09:50:08;;;;;;;12.70;6.60;;;;;;;8.20;65.67;99798.91;24465;1359;3026358;-72
2021/11/12 09:52:40;;;;;;;10.20;5.30;;;;;;;8.10;66.02;99807.58;24478;1358;3055055;-71
2021/11/12 09:55:10;;;;;;;8.20;5.00;;;;;;;8.17;65.96;99781.63;24456;1359;3026946;-69
2021/11/12 09:57:39;;;;;;;19.50;7.60;;;;;;;8.19;65.95;99783.77;24544;1358;3026572;-71
2021/11/12 10:00:11;;;;;;;12.00;6.20;;;;;;;8.13;66.08;99792.59;24447;1358;3027036;-75
2021/11/12 10:02:45;;;;;;;14.70;5.50;;;;;;;8.13;66.19;99799.23;24489;1358;3052257;-70
2021/11/12 10:05:15;;;;;;;15.10;6.90;;;;;;;8.04;66.16;99809.92;24500;1360;3030694;-70
2021/11/12 10:07:44;;;;;;;10.00;5.30;;;;;;;7.93;66.80;99798.56;24496;1358;3027158;-67
2021/11/12 10:10:15;;;;;;;20.90;6.00;;;;;;;8.24;66.16;99805.03;24465;1355;3026462;-70
2021/11/12 10:12:59;;;;;;;8.90;4.90;;;;;;;8.81;64.62;99795.73;24455;1361;3058945;-73
2021/11/12 10:15:32;;;;;;;16.50;6.60;;;;;;;8.77;64.02;99788.11;24505;1355;3026605;-72
2021/11/12 10:18:10;;;;;;;12.60;4.90;;;;;;;8.68;64.56;99781.02;24539;1351;3052743;-68
2021/11/12 10:20:40;;;;;;;9.80;5.70;;;;;;;8.62;64.31;99780.95;24485;1356;3052447;-71
2021/11/12 10:23:15;;;;;;;15.80;6.40;;;;;;;8.47;64.92;99774.32;24491;1359;3026492;-73
2021/11/12 10:26:01;;;;;;;9.10;5.60;;;;;;;8.42;65.48;99761.96;24535;1352;3053035;-68
2021/11/12 10:28:41;;;;;;;17.20;7.40;;;;;;;8.43;65.74;99760.55;24495;1361;3053990;-71
2021/11/12 10:31:18;;;;;;;10.90;5.60;;;;;;;8.32;66.10;99773.77;24443;1355;3071253;-69
2021/11/12 10:33:50;;;;;;;12.10;5.60;;;;;;;8.52;65.78;99760.48;24535;1352;3049711;-76
2021/11/12 10:36:19;;;;;;;17.30;7.50;;;;;;;8.57;65.73;99754.28;24500;1355;3026259;-73
2021/11/12 10:38:49;;;;;;;12.70;5.80;;;;;;;8.55;66.12;99760.48;24524;1358;3027405;-72
2021/11/12 10:41:25;;;;;;;13.90;5.30;;;;;;;8.66;65.64;99770.47;24533;1358;3053013;-74
2021/11/12 10:43:54;;;;;;;10.30;4.60;;;;;;;8.67;66.28;99758.18;24524;1357;3054504;-71
2021/11/12 10:46:43;;;;;;;8.40;4.10;;;;;;;9.46;63.85;99759.70;24458;1359;3026168;-72
2021/11/12 10:49:26;;;;;;;6.80;3.90;;;;;;;9.86;62.33;99744.70;24453;1354;3059457;-71
2021/11/12 10:52:10;;;;;;;14.60;4.80;;;;;;;10.01;61.11;99744.55;24470;1358;3048327;-71
2021/11/12 10:54:55;;;;;;;8.80;4.40;;;;;;;10.02;60.72;99743.85;24519;1358;3053165;-70
2021/11/12 10:57:33;;;;;;;11.10;4.40;;;;;;;9.95;60.11;99745.08;24612;1355;3052814;-73
2021/11/12 11:00:34;;;;;;;8.60;4.50;;;;;;;9.64;60.53;99755.27;24528;1361;3071604;-70
2021/11/12 11:03:09;;;;;;;9.30;4.40;;;;;;;9.54;61.18;99742.48;24477;1357;3051989;-69
2021/11/12 11:05:46;;;;;;;10.40;4.20;;;;;;;9.63;60.96;99727.02;24488;1354;3054911;-70
2021/11/12 11:08:24;;;;;;;13.60;4.40;;;;;;;9.59;60.60;99718.33;24461;1358;3054926;-70
2021/11/12 11:11:00;;;;;;;6.90;4.70;;;;;;;9.61;60.60;99719.77;24421;1354;3054841;-73
2021/11/12 11:13:35;;;;;;;16.40;5.50;;;;;;;9.63;60.69;99712.98;24490;1355;3052352;-73
2021/11/12 11:16:05;;;;;;;9.90;4.50;;;;;;;9.70;60.61;99703.92;24479;1358;3052900;-68
2021/11/12 11:18:40;;;;;;;9.80;5.10;;;;;;;9.78;60.40;99717.14;24492;1358;3026305;-73
2021/11/12 11:23:45;;;;;;;11.20;5.30;;;;;;;9.71;60.11;99726.78;24474;1359;3026530;-72
2021/11/12 11:26:18;;;;;;;10.40;4.60;;;;;;;9.75;60.21;99719.21;24541;1359;3053252;-68
2021/11/12 11:28:49;;;;;;;12.50;5.90;;;;;;;9.69;60.46;99719.19;24505;1361;3026205;-68
2021/11/12 11:31:18;;;;;;;14.20;5.90;;;;;;;9.57;60.85;99719.08;24502;1359;3026484;-66
2021/11/12 11:33:49;;;;;;;15.10;6.00;;;;;;;9.66;60.63;99713.56;24498;1358;3026878;-66
2021/11/12 11:36:20;;;;;;;16.90;6.80;;;;;;;9.62;60.29;99710.77;24494;1359;3066464;-69
2021/11/12 11:38:51;;;;;;;9.70;5.70;;;;;;;9.54;60.64;99717.67;24470;1359;3027120;-71
2021/11/12 11:41:21;;;;;;;15.90;5.80;;;;;;;9.53;60.54;99713.34;24468;1362;3026343;-72
2021/11/12 11:43:50;;;;;;;19.90;7.70;;;;;;;9.62;60.00;99716.88;24528;1362;3026533;-72
2021/11/12 11:46:23;;;;;;;11.90;6.90;;;;;;;9.66;59.91;99713.05;24487;1358;3028792;-72
2021/11/12 11:48:54;;;;;;;16.20;7.40;;;;;;;9.55;60.13;99718.86;24477;1358;3052240;-72
2021/11/12 11:51:32;;;;;;;14.40;9.10;;;;;;;9.46;60.25;99713.02;24491;1358;3027389;-67
2021/11/12 11:54:11;;;;;;;22.20;8.70;;;;;;;9.55;60.57;99709.75;24534;1356;3054911;-73
2021/11/12 11:56:44;;;;;;;17.60;7.10;;;;;;;9.62;60.36;99712.91;24467;1358;3052239;-67
2021/11/12 11:59:17;;;;;;;14.40;8.20;;;;;;;9.57;60.12;99703.19;24478;1355;3026861;-66
2021/11/12 12:01:46;;;;;;;12.80;5.30;;;;;;;9.47;60.15;99719.27;24501;1352;3026970;-69
2021/11/12 12:04:15;;;;;;;17.20;8.20;;;;;;;9.54;60.18;99713.85;24463;1355;3026744;-67
2021/11/12 12:07:03;;;;;;;15.50;7.80;;;;;;;9.47;60.45;99714.23;24440;1355;3027208;-71
2021/11/12 12:09:58;;;;;;;20.90;8.90;;;;;;;9.40;60.69;99719.27;24757;1355;3051664;-67
2021/11/12 12:12:36;;;;;;;18.80;9.00;;;;;;;9.62;60.40;99712.34;24468;1355;3068209;-69
2021/11/12 12:15:05;;;;;;;18.50;9.30;;;;;;;9.68;60.28;99708.52;24475;1356;3049380;-68
2021/11/12 12:17:43;;;;;;;15.70;9.20;;;;;;;9.75;60.26;99715.20;24480;1358;3027284;-67
2021/11/12 13:21:44;;;;;;;14.60;7.70;;;;;;;10.09;56.95;99690.61;24448;1355;3068208;-71
2021/11/12 13:24:38;;;;;;;16.70;8.00;;;;;;;10.21;56.86;99687.69;24494;1355;3051895;-67
2021/11/12 13:27:07;;;;;;;17.20;8.10;;;;;;;10.29;56.86;99690.59;24465;1356;3052211;-69
2021/11/12 13:29:41;;;;;;;16.90;7.40;;;;;;;10.24;57.59;99695.02;24541;1355;3026577;-68
2021/11/12 13:32:10;;;;;;;20.50;9.40;;;;;;;10.04;58.08;99698.23;24487;1358;3055538;-72
2021/11/12 13:34:45;;;;;;;22.10;10.70;;;;;;;9.93;58.76;99697.79;24513;1354;3026949;-73
2021/11/12 13:37:23;;;;;;;30.50;10.70;;;;;;;9.88;59.09;99704.52;24474;1355;3053030;-67
2021/11/12 13:40:11;;;;;;;20.30;10.00;;;;;;;9.95;58.81;99705.86;24487;1361;3052036;-73
2021/11/12 13:42:45;;;;;;;24.30;11.30;;;;;;;9.86;58.82;99699.19;24462;1359;3071747;-70
2021/11/12 13:45:24;;;;;;;25.10;11.80;;;;;;;9.73;58.95;99704.45;24475;1352;3048964;-71
2021/11/12 13:48:01;;;;;;;21.00;11.70;;;;;;;9.69;58.74;99713.20;24498;1361;3052572;-72
2021/11/12 13:50:33;;;;;;;29.20;11.20;;;;;;;9.52;58.86;99713.75;24522;1354;3053307;-75
2021/11/12 13:53:02;;;;;;;18.90;8.90;;;;;;;9.39;59.41;99715.65;24509;1355;3026365;-69
2021/11/12 13:55:36;;;;;;;18.80;8.20;;;;;;;9.38;59.20;99710.44;24432;1362;3026834;-77
2021/11/12 13:58:06;;;;;;;17.50;8.50;;;;;;;9.33;59.14;99714.90;24594;1358;3056107;-70
2021/11/12 14:00:37;;;;;;;20.40;8.80;;;;;;;9.16;59.63;99721.58;24542;1355;3026643;-69
2021/11/12 14:03:13;;;;;;;16.20;9.20;;;;;;;8.98;59.98;99729.11;24586;1358;3025996;-68
2021/11/12 14:05:53;;;;;;;18.90;8.60;;;;;;;8.94;60.20;99728.41;24529;1358;3049547;-74
2021/11/12 14:08:27;;;;;;;19.30;8.50;;;;;;;8.90;60.00;99723.35;24472;1355;3055128;-69
2021/11/12 14:10:57;;;;;;;14.70;8.20;;;;;;;8.82;60.29;99726.56;24473;1358;3055627;-69
2021/11/12 14:13:34;;;;;;;16.50;8.00;;;;;;;8.74;60.63;99727.65;24501;1359;3026519;-68
2021/11/12 14:27:13;;;;;;;24.20;11.90;;;;;;;8.33;61.73;99732.02;24486;1355;3052904;-70
2021/11/12 14:45:33;;;;;;;21.10;8.30;;;;;;;7.76;63.59;99744.01;24466;1355;3071465;-73
2021/11/12 14:48:37;;;;;;;14.30;7.50;;;;;;;7.74;63.65;99747.27;24500;1351;3049692;-71
2021/11/12 14:53:46;;;;;;;18.30;8.70;;;;;;;7.63;64.11;99749.65;24533;1360;3028172;-73
2021/11/12 14:56:27;;;;;;;27.30;10.30;;;;;;;7.62;64.22;99749.17;24482;1355;3059401;-69
2021/11/12 14:59:14;;;;;;;30.30;11.00;;;;;;;7.48;64.66;99756.59;24474;1355;3052545;-68
2021/11/12 15:01:43;;;;;;;26.30;12.60;;;;;;;7.36;65.17;99759.37;24465;1358;3055779;-72
2021/11/12 15:04:12;;;;;;;24.00;11.80;;;;;;;7.24;65.65;99764.72;24424;1355;3026857;-71
2021/11/12 15:06:41;;;;;;;28.50;13.70;;;;;;;7.19;65.94;99767.71;24498;1361;3052356;-71
2021/11/12 15:11:40;;;;;;;34.00;11.70;;;;;;;7.13;66.31;99772.67;24521;1359;3026685;-70
2021/11/12 15:14:18;;;;;;;24.70;10.60;;;;;;;7.14;66.21;99775.25;24544;1361;3027277;-69
2021/11/12 15:16:47;;;;;;;23.70;11.70;;;;;;;7.04;66.64;99777.23;24477;1355;3051596;-71
2021/11/12 15:19:38;;;;;;;22.70;11.60;;;;;;;6.98;66.92;99779.02;24422;1361;3055051;-72
2021/11/12 15:32:23;;;;;;;23.00;10.50;;;;;;;7.55;66.42;99791.11;24514;1355;3048486;-71
2021/11/12 15:34:57;;;;;;;21.90;10.20;;;;;;;7.82;64.54;99786.14;24485;1354;3055505;-76
2021/11/12 15:40:08;;;;;;;23.30;11.00;;;;;;;7.85;64.17;99789.34;24493;1354;3055479;-74
2021/11/12 15:43:03;;;;;;;22.00;11.70;;;;;;;7.75;64.56;99791.48;24559;1358;3053045;-72
2021/11/12 15:48:25;;;;;;;35.90;12.40;;;;;;;7.41;65.30;99799.03;24486;1354;3026033;-73
2021/11/12 15:51:39;;;;;;;27.10;12.90;;;;;;;7.25;65.93;99804.06;24459;1361;3052425;-71
2021/11/12 15:54:42;;;;;;;20.50;12.10;;;;;;;7.05;66.83;99807.48;24483;1355;3055399;-73
2021/11/12 16:15:54;;;;;;;28.00;14.10;;;;;;;7.64;65.38;99825.10;24483;1361;3055240;-71
2021/11/12 16:26:05;;;;;;;25.00;12.60;;;;;;;7.06;67.05;99818.42;24484;1355;3054308;-69
2021/11/12 16:28:49;;;;;;;29.20;13.40;;;;;;;6.97;67.58;99818.10;24516;1354;3026573;-71
2021/11/12 16:31:18;;;;;;;25.60;13.20;;;;;;;6.78;68.48;99825.11;24482;1358;3049718;-71
2021/11/12 16:33:48;;;;;;;21.90;12.50;;;;;;;6.76;68.68;99823.27;24475;1355;3029032;-74
2021/11/12 16:36:17;;;;;;;19.10;9.80;;;;;;;6.68;68.98;99829.66;24442;1362;3071626;-73
2021/11/12 16:38:47;;;;;;;31.50;14.70;;;;;;;6.83;68.31;99828.20;24503;1355;3026566;-72
2021/11/12 16:41:21;;;;;;;26.00;11.40;;;;;;;6.79;68.93;99833.42;24497;1355;3051625;-75
2021/11/12 16:52:13;;;;;;;25.80;13.10;;;;;;;7.58;66.01;99848.00;24519;1358;3026655;-75
2021/11/12 16:57:57;;;;;;;24.50;12.60;;;;;;;7.17;67.54;99850.92;24477;1355;3049963;-70
2021/11/12 17:05:52;;;;;;;28.00;14.40;;;;;;;6.83;68.83;99854.35;24486;1359;3026652;-70
2021/11/12 17:11:23;;;;;;;22.70;12.40;;;;;;;6.83;69.43;99857.13;24515;1360;3052791;-76
2021/11/12 17:46:42;;;;;;;29.80;16.60;;;;;;;8.10;64.83;99866.88;24498;1356;3051754;-75
2021/11/12 17:49:59;;;;;;;35.80;17.80;;;;;;;8.01;64.96;99875.30;24532;1360;3070573;-74
2021/11/12 18:03:41;;;;;;;48.20;22.70;;;;;;;7.11;67.78;99878.69;24466;1355;3049058;-76
2021/11/12 18:11:56;;;;;;;52.70;23.40;;;;;;;6.91;68.37;99875.82;24459;1359;3071396;-76
2021/11/12 21:47:00;;;;;;;58.80;28.30;;;;;;;6.79;69.96;100000.75;24516;1361;3053450;-73
2021/11/12 21:49:28;;;;;;;47.70;23.70;;;;;;;6.73;70.32;100001.31;24477;1355;3028670;-73
2021/11/12 21:52:00;;;;;;;50.60;25.20;;;;;;;7.41;68.81;99991.09;24482;1361;3052133;-70
2021/11/12 21:54:32;;;;;;;56.80;26.40;;;;;;;7.85;66.98;99996.17;24481;1357;3051201;-73
2021/11/12 21:57:02;;;;;;;63.40;27.50;;;;;;;7.90;66.70;99999.09;24453;1361;3026414;-73
2021/11/12 21:59:31;;;;;;;54.30;27.30;;;;;;;7.74;66.95;99999.60;24474;1359;3027023;-75
2021/11/12 22:02:00;;;;;;;58.80;24.60;;;;;;;7.64;67.06;100001.69;24458;1358;3050688;-76
2021/11/12 22:04:30;;;;;;;59.60;28.50;;;;;;;7.48;67.49;100001.80;24528;1355;3026465;-69
2021/11/12 22:07:02;;;;;;;63.20;30.10;;;;;;;7.28;68.28;100001.90;24415;1361;3026806;-72
2021/11/12 22:09:33;;;;;;;62.00;29.00;;;;;;;7.09;69.04;100003.66;24481;1357;3026701;-72